<?xml version="1.0" encoding="UTF-8" standalone="no" ?>
<gpx xmlns="http://www.topografix.com/GPX/1/1" xmlns:xsi="http://www.w3.org/2001/XMLSchema-instance" xsi:schemaLocation="http://www.topografix.com/GPX/1/1 http://www.topografix.com/GPX/1/1/gpx.xsd" version="1.1" creator="VisuGPX - https://www.visugpx.com">
  <metadata>
    <name>Reco Pilon du Roi </name>
    <desc><![CDATA[Guy, Maurice, Serge, Robert
Passage ds une propriété privée....
]]></desc>
  </metadata>
  <trk>
    <name><![CDATA[ACTIVE LOG183336]]></name>
    <trkseg>
      <trkpt lat="43.43" lon="5.43563">
        <ele>12.77</ele>
        <time>2011-11-23T17:33:36Z</time>
      </trkpt>
      <trkpt lat="43.43" lon="5.43563">
        <ele>13.367</ele>
        <time>2011-11-23T17:33:46Z</time>
      </trkpt>
      <trkpt lat="43.43" lon="5.43563">
        <ele>12.522</ele>
        <time>2011-11-23T17:33:58Z</time>
      </trkpt>
      <trkpt lat="43.43" lon="5.43563">
        <ele>13.367</ele>
        <time>2011-11-23T17:34:07Z</time>
      </trkpt>
      <trkpt lat="43.43" lon="5.43563">
        <ele>14.549</ele>
        <time>2011-11-23T17:34:17Z</time>
      </trkpt>
      <trkpt lat="43.43" lon="5.43563">
        <ele>12.929</ele>
        <time>2011-11-23T17:34:28Z</time>
      </trkpt>
      <trkpt lat="43.43" lon="5.43563">
        <ele>12.781</ele>
        <time>2011-11-23T17:34:40Z</time>
      </trkpt>
      <trkpt lat="43.43" lon="5.43563">
        <ele>13.5</ele>
        <time>2011-11-23T17:34:51Z</time>
      </trkpt>
      <trkpt lat="43.43" lon="5.43563">
        <ele>13.893</ele>
        <time>2011-11-23T17:35:03Z</time>
      </trkpt>
      <trkpt lat="43.43" lon="5.43563">
        <ele>13.626</ele>
        <time>2011-11-23T17:35:14Z</time>
      </trkpt>
      <trkpt lat="43.43" lon="5.43563">
        <ele>13.854</ele>
        <time>2011-11-23T17:35:25Z</time>
      </trkpt>
      <trkpt lat="43.43" lon="5.43563">
        <ele>12.572</ele>
        <time>2011-11-23T17:35:37Z</time>
      </trkpt>
      <trkpt lat="43.43" lon="5.43563">
        <ele>13.447</ele>
        <time>2011-11-23T17:35:48Z</time>
      </trkpt>
      <trkpt lat="43.43" lon="5.43563">
        <ele>13.92</ele>
        <time>2011-11-23T17:36:00Z</time>
      </trkpt>
      <trkpt lat="43.43" lon="5.43563">
        <ele>13.603</ele>
        <time>2011-11-23T17:36:09Z</time>
      </trkpt>
      <trkpt lat="43.43" lon="5.43563">
        <ele>14.126</ele>
        <time>2011-11-23T17:36:20Z</time>
      </trkpt>
      <trkpt lat="43.43" lon="5.43563">
        <ele>13.51</ele>
        <time>2011-11-23T17:36:32Z</time>
      </trkpt>
      <trkpt lat="43.43" lon="5.43563">
        <ele>14.784</ele>
        <time>2011-11-23T17:36:43Z</time>
      </trkpt>
      <trkpt lat="43.43" lon="5.43563">
        <ele>13.394</ele>
        <time>2011-11-23T17:36:55Z</time>
      </trkpt>
      <trkpt lat="43.43" lon="5.43563">
        <ele>12.86</ele>
        <time>2011-11-23T17:37:06Z</time>
      </trkpt>
      <trkpt lat="43.43" lon="5.43563">
        <ele>13.648</ele>
        <time>2011-11-23T17:37:17Z</time>
      </trkpt>
      <trkpt lat="43.43" lon="5.43563">
        <ele>14.276</ele>
        <time>2011-11-23T17:37:29Z</time>
      </trkpt>
      <trkpt lat="43.43" lon="5.43563">
        <ele>14.213</ele>
        <time>2011-11-23T17:37:40Z</time>
      </trkpt>
      <trkpt lat="43.43" lon="5.43563">
        <ele>13.909</ele>
        <time>2011-11-23T17:37:52Z</time>
      </trkpt>
      <trkpt lat="43.43" lon="5.43563">
        <ele>13.862</ele>
        <time>2011-11-23T17:38:03Z</time>
      </trkpt>
      <trkpt lat="43.43" lon="5.43563">
        <ele>14.221</ele>
        <time>2011-11-23T17:38:14Z</time>
      </trkpt>
      <trkpt lat="43.43" lon="5.43563">
        <ele>14.213</ele>
        <time>2011-11-23T17:38:26Z</time>
      </trkpt>
      <trkpt lat="43.43" lon="5.43563">
        <ele>12.651</ele>
        <time>2011-11-23T17:38:37Z</time>
      </trkpt>
      <trkpt lat="43.43" lon="5.43563">
        <ele>13.936</ele>
        <time>2011-11-23T17:38:47Z</time>
      </trkpt>
    </trkseg>
  </trk>
</gpx>